EGLF METAR and TAF | Updated Today

EGLF METAR

Farnborough Airport

Observation time: 16 min. ago

EGLF 062050Z AUTO 21011KT 9999 NCD 13/11 Q1027

Need help? Read our tutorial on how to read METARs or read the parsed version below.

Farnborough Airport (EGLF) METAR

  • Weather conditions on Thu, 06 Oct 2022 20:50:00 +0000 (16 min. ago):
  • Present conditions: Dry
  • Clouds: Nil cloud detected
  • Visibility: Greater than 10 km
  • Wind: 210 degrees at 11 knots
  • Temperature: 13 celsius
  • Dew point: 11 celsius
  • Pressure: 1027 millibars
  • Remarks: None


Useful to know...